Аэропорт
Угольный (UHMA)

 UHMA / DYR
ЗЦ Хабаровск
Магадан (UHMM)
Магадан (UHMM)
 64.73490, 177.74100  / 194 ft

 UHMA 261000Z 35005MPS 9999 -SN NSC M19/M22 Q1029 R01/////// NOSIG RMK TDZ R01/35005G06MPS END R01/36005G06MPS QFE768/1024
 TAF UHMA 260746Z 2609/2709 01006MPS 6000 -SN SCT010 BKN030 TEMPO 2609/2709 07009G14MPS 1100 SHSN DRSN BKN010 BKN015CB
UHMA_j_0220
показать схемы
Название сценария Тип сценария Flight Simulator 9 Flight Simulator X Prepar3D v2 Prepar3D v3 Prepar3D v4 Prepar3D v5 xPlane
UHMA xPlane бесплатный
uhma-scenery-fs9-1003 бесплатный
uhma-scenery-fsx-1308 бесплатный
UHMA_P3D_v.4.4 бесплатный


2020 © VATRUS division (Privacy Policy)